sensor_id;sensor_type;location;lat;lon;timestamp;pressure;altitude;pressure_sealevel;temperature;humidity
75549;BME280;64133;56.002;37.208;2023-07-31T00:02:49;98331.91;;;14.64;69.05
75549;BME280;64133;56.002;37.208;2023-07-31T00:07:54;98326.84;;;14.54;69.45
75549;BME280;64133;56.002;37.208;2023-07-31T00:12:58;98332.51;;;14.43;69.84
75549;BME280;64133;56.002;37.208;2023-07-31T00:18:03;98334.17;;;14.40;70.05
75549;BME280;64133;56.002;37.208;2023-07-31T00:23:08;98341.35;;;14.31;70.39
75549;BME280;64133;56.002;37.208;2023-07-31T00:28:13;98338.59;;;14.25;70.66
75549;BME280;64133;56.002;37.208;2023-07-31T00:33:17;98331.76;;;14.30;70.82
75549;BME280;64133;56.002;37.208;2023-07-31T00:38:22;98338.05;;;14.33;70.62
75549;BME280;64133;56.002;37.208;2023-07-31T00:43:27;98331.47;;;14.25;70.91
75549;BME280;64133;56.002;37.208;2023-07-31T00:48:31;98323.73;;;14.20;70.94
75549;BME280;64133;56.002;37.208;2023-07-31T00:53:36;98319.59;;;14.17;71.04
75549;BME280;64133;56.002;37.208;2023-07-31T00:58:41;98321.63;;;14.11;71.20
75549;BME280;64133;56.002;37.208;2023-07-31T01:03:45;98318.20;;;13.98;71.56
75549;BME280;64133;56.002;37.208;2023-07-31T01:08:51;98316.72;;;13.96;71.89
75549;BME280;64133;56.002;37.208;2023-07-31T01:13:56;98308.37;;;14.11;71.46
75549;BME280;64133;56.002;37.208;2023-07-31T01:19:00;98318.02;;;14.00;71.66
75549;BME280;64133;56.002;37.208;2023-07-31T01:24:15;98322.21;;;13.90;72.09
75549;BME280;64133;56.002;37.208;2023-07-31T01:29:20;98321.88;;;13.93;72.05
75549;BME280;64133;56.002;37.208;2023-07-31T01:34:23;98322.87;;;13.88;72.29
75549;BME280;64133;56.002;37.208;2023-07-31T01:39:27;98320.60;;;13.81;72.55
75549;BME280;64133;56.002;37.208;2023-07-31T01:44:32;98318.45;;;13.80;72.68
75549;BME280;64133;56.002;37.208;2023-07-31T01:49:37;98315.46;;;13.79;72.63
75549;BME280;64133;56.002;37.208;2023-07-31T01:54:41;98320.60;;;13.81;72.80
75549;BME280;64133;56.002;37.208;2023-07-31T01:59:46;98322.37;;;13.89;72.53
75549;BME280;64133;56.002;37.208;2023-07-31T02:04:51;98322.05;;;13.88;72.48
75549;BME280;64133;56.002;37.208;2023-07-31T02:09:56;98322.56;;;13.83;72.65
75549;BME280;64133;56.002;37.208;2023-07-31T02:15:01;98323.89;;;13.83;72.68
75549;BME280;64133;56.002;37.208;2023-07-31T02:20:07;98323.39;;;13.83;72.87
75549;BME280;64133;56.002;37.208;2023-07-31T02:25:12;98327.02;;;13.87;72.70
75549;BME280;64133;56.002;37.208;2023-07-31T02:30:16;98331.98;;;13.90;72.56
75549;BME280;64133;56.002;37.208;2023-07-31T02:35:21;98325.69;;;13.91;72.58
75549;BME280;64133;56.002;37.208;2023-07-31T02:40:26;98322.96;;;14.07;72.28
75549;BME280;64133;56.002;37.208;2023-07-31T02:45:31;98315.17;;;14.05;72.14
75549;BME280;64133;56.002;37.208;2023-07-31T02:50:35;98313.78;;;14.18;72.00
75549;BME280;64133;56.002;37.208;2023-07-31T02:55:40;98317.21;;;14.26;71.98
75549;BME280;64133;56.002;37.208;2023-07-31T03:00:45;98319.59;;;14.48;71.43
75549;BME280;64133;56.002;37.208;2023-07-31T03:05:49;98316.66;;;14.62;71.09
75549;BME280;64133;56.002;37.208;2023-07-31T03:10:54;98321.16;;;14.85;70.45
75549;BME280;64133;56.002;37.208;2023-07-31T03:15:59;98328.03;;;14.94;70.30
75549;BME280;64133;56.002;37.208;2023-07-31T03:21:03;98328.31;;;14.99;70.28
75549;BME280;64133;56.002;37.208;2023-07-31T03:26:08;98325.80;;;15.20;69.71
75549;BME280;64133;56.002;37.208;2023-07-31T03:31:13;98328.96;;;15.34;69.37
75549;BME280;64133;56.002;37.208;2023-07-31T03:36:18;98323.34;;;15.48;69.03
75549;BME280;64133;56.002;37.208;2023-07-31T03:41:23;98319.52;;;15.66;68.83
75549;BME280;64133;56.002;37.208;2023-07-31T03:46:27;98314.34;;;15.83;68.21
75549;BME280;64133;56.002;37.208;2023-07-31T03:51:32;98318.33;;;16.08;67.65
75549;BME280;64133;56.002;37.208;2023-07-31T03:56:37;98322.16;;;16.31;67.27
75549;BME280;64133;56.002;37.208;2023-07-31T04:01:42;98321.22;;;16.50;66.72
75549;BME280;64133;56.002;37.208;2023-07-31T04:06:46;98317.85;;;16.77;65.86
75549;BME280;64133;56.002;37.208;2023-07-31T04:11:51;98313.12;;;17.01;64.88
75549;BME280;64133;56.002;37.208;2023-07-31T04:16:56;98320.55;;;17.23;64.33
75549;BME280;64133;56.002;37.208;2023-07-31T04:22:01;98323.75;;;17.40;63.65
75549;BME280;64133;56.002;37.208;2023-07-31T04:27:06;98319.38;;;17.60;63.30
75549;BME280;64133;56.002;37.208;2023-07-31T04:32:10;98321.09;;;17.92;62.48
75549;BME280;64133;56.002;37.208;2023-07-31T04:37:15;98325.27;;;18.07;61.89
75549;BME280;64133;56.002;37.208;2023-07-31T04:42:20;98334.14;;;18.28;61.42
75549;BME280;64133;56.002;37.208;2023-07-31T04:47:25;98334.63;;;18.51;61.04
75549;BME280;64133;56.002;37.208;2023-07-31T04:52:29;98331.77;;;18.66;60.40
75549;BME280;64133;56.002;37.208;2023-07-31T04:57:34;98333.36;;;18.84;59.90
75549;BME280;64133;56.002;37.208;2023-07-31T05:02:39;98342.11;;;19.09;59.37
75549;BME280;64133;56.002;37.208;2023-07-31T05:07:43;98339.01;;;19.32;59.15
75549;BME280;64133;56.002;37.208;2023-07-31T05:12:48;98336.84;;;19.45;58.23
75549;BME280;64133;56.002;37.208;2023-07-31T05:17:53;98343.53;;;19.65;57.60
75549;BME280;64133;56.002;37.208;2023-07-31T05:22:58;98344.83;;;19.78;57.18
75549;BME280;64133;56.002;37.208;2023-07-31T05:28:02;98336.55;;;19.93;56.25
75549;BME280;64133;56.002;37.208;2023-07-31T05:33:07;98337.20;;;20.11;55.43
75549;BME280;64133;56.002;37.208;2023-07-31T05:38:12;98342.36;;;20.28;54.89
75549;BME280;64133;56.002;37.208;2023-07-31T05:43:16;98340.45;;;20.48;54.21
75549;BME280;64133;56.002;37.208;2023-07-31T05:48:21;98336.11;;;20.86;53.57
75549;BME280;64133;56.002;37.208;2023-07-31T05:53:26;98346.28;;;21.11;52.82
75549;BME280;64133;56.002;37.208;2023-07-31T05:58:30;98342.67;;;21.24;52.30
75549;BME280;64133;56.002;37.208;2023-07-31T06:03:36;98344.61;;;21.42;51.53
75549;BME280;64133;56.002;37.208;2023-07-31T06:08:41;98347.34;;;21.60;50.77
75549;BME280;64133;56.002;37.208;2023-07-31T06:13:45;98346.06;;;21.72;50.17
75549;BME280;64133;56.002;37.208;2023-07-31T06:18:50;98348.92;;;21.95;49.58
75549;BME280;64133;56.002;37.208;2023-07-31T06:23:55;98345.86;;;22.19;49.15
75549;BME280;64133;56.002;37.208;2023-07-31T06:28:59;98346.98;;;22.30;48.77
75549;BME280;64133;56.002;37.208;2023-07-31T06:34:04;98346.23;;;22.23;48.27
75549;BME280;64133;56.002;37.208;2023-07-31T06:39:09;98350.72;;;22.50;47.70
75549;BME280;64133;56.002;37.208;2023-07-31T06:44:14;98346.99;;;22.90;47.28
75549;BME280;64133;56.002;37.208;2023-07-31T06:49:18;98344.64;;;22.73;47.06
75549;BME280;64133;56.002;37.208;2023-07-31T06:54:23;98352.53;;;22.77;45.75
75549;BME280;64133;56.002;37.208;2023-07-31T06:59:30;98360.11;;;22.80;45.35
75549;BME280;64133;56.002;37.208;2023-07-31T07:04:36;98359.58;;;22.90;45.44
75549;BME280;64133;56.002;37.208;2023-07-31T07:09:44;98363.55;;;23.20;44.60
75549;BME280;64133;56.002;37.208;2023-07-31T07:14:50;98369.06;;;23.37;44.26
75549;BME280;64133;56.002;37.208;2023-07-31T07:19:55;98380.65;;;23.49;43.55
75549;BME280;64133;56.002;37.208;2023-07-31T07:25:00;98371.70;;;23.34;43.41
75549;BME280;64133;56.002;37.208;2023-07-31T07:30:06;98370.50;;;23.51;42.53
75549;BME280;64133;56.002;37.208;2023-07-31T07:35:12;98365.06;;;23.60;42.41
75549;BME280;64133;56.002;37.208;2023-07-31T07:40:17;98361.94;;;23.89;42.18
75549;BME280;64133;56.002;37.208;2023-07-31T07:45:23;98365.79;;;23.46;42.11
75549;BME280;64133;56.002;37.208;2023-07-31T07:50:28;98372.20;;;23.78;41.52
75549;BME280;64133;56.002;37.208;2023-07-31T07:55:45;98368.48;;;24.05;41.29
75549;BME280;64133;56.002;37.208;2023-07-31T08:00:53;98364.24;;;23.83;41.46
75549;BME280;64133;56.002;37.208;2023-07-31T08:05:59;98368.18;;;24.56;40.84
75549;BME280;64133;56.002;37.208;2023-07-31T08:11:04;98372.85;;;24.35;40.71
75549;BME280;64133;56.002;37.208;2023-07-31T08:16:09;98379.67;;;23.99;41.24
75549;BME280;64133;56.002;37.208;2023-07-31T08:21:14;98375.27;;;24.07;41.33
75549;BME280;64133;56.002;37.208;2023-07-31T08:26:18;98370.51;;;23.74;42.16
75549;BME280;64133;56.002;37.208;2023-07-31T08:31:24;98371.08;;;24.14;41.37
75549;BME280;64133;56.002;37.208;2023-07-31T08:36:29;98371.22;;;23.81;42.24
75549;BME280;64133;56.002;37.208;2023-07-31T08:41:38;98376.73;;;24.81;40.50
75549;BME280;64133;56.002;37.208;2023-07-31T08:46:43;98374.77;;;24.94;39.97
75549;BME280;64133;56.002;37.208;2023-07-31T08:51:48;98382.23;;;25.18;39.29
75549;BME280;64133;56.002;37.208;2023-07-31T08:56:53;98378.34;;;24.14;40.49
75549;BME280;64133;56.002;37.208;2023-07-31T09:01:57;98380.78;;;24.81;38.85
75549;BME280;64133;56.002;37.208;2023-07-31T09:07:03;98380.02;;;24.69;39.21
75549;BME280;64133;56.002;37.208;2023-07-31T09:12:08;98378.11;;;23.77;40.37
75549;BME280;64133;56.002;37.208;2023-07-31T09:17:13;98371.44;;;24.87;38.59
75549;BME280;64133;56.002;37.208;2023-07-31T09:22:18;98380.38;;;25.06;37.61
75549;BME280;64133;56.002;37.208;2023-07-31T09:27:22;98372.10;;;23.73;39.21
75549;BME280;64133;56.002;37.208;2023-07-31T09:32:27;98369.30;;;24.89;37.77
75549;BME280;64133;56.002;37.208;2023-07-31T09:37:32;98371.23;;;24.91;37.74
75549;BME280;64133;56.002;37.208;2023-07-31T09:42:37;98377.32;;;25.15;37.65
75549;BME280;64133;56.002;37.208;2023-07-31T09:47:47;98376.86;;;25.54;37.13
75549;BME280;64133;56.002;37.208;2023-07-31T09:52:53;98376.45;;;25.62;36.46
75549;BME280;64133;56.002;37.208;2023-07-31T09:57:57;98370.63;;;25.87;36.39
75549;BME280;64133;56.002;37.208;2023-07-31T10:03:06;98382.69;;;25.12;37.70
75549;BME280;64133;56.002;37.208;2023-07-31T10:08:07;98367.40;;;25.71;36.85
75549;BME280;64133;56.002;37.208;2023-07-31T10:13:12;98381.00;;;24.80;38.07
75549;BME280;64133;56.002;37.208;2023-07-31T10:18:16;98375.43;;;25.83;36.48
75549;BME280;64133;56.002;37.208;2023-07-31T10:23:24;98378.70;;;25.03;37.28
75549;BME280;64133;56.002;37.208;2023-07-31T10:28:28;98376.42;;;25.96;35.92
75549;BME280;64133;56.002;37.208;2023-07-31T11:05:18;98356.02;;;26.49;34.10
75549;BME280;64133;56.002;37.208;2023-07-31T11:10:23;98370.70;;;26.36;34.43
75549;BME280;64133;56.002;37.208;2023-07-31T11:15:28;98368.79;;;25.06;36.83
75549;BME280;64133;56.002;37.208;2023-07-31T11:20:34;98363.52;;;25.64;36.38
75549;BME280;64133;56.002;37.208;2023-07-31T11:25:39;98357.92;;;26.51;35.71
75549;BME280;64133;56.002;37.208;2023-07-31T11:30:44;98360.98;;;26.60;35.93
75549;BME280;64133;56.002;37.208;2023-07-31T11:35:49;98367.54;;;25.62;37.12
75549;BME280;64133;56.002;37.208;2023-07-31T11:40:53;98360.22;;;25.96;36.80
75549;BME280;64133;56.002;37.208;2023-07-31T11:46:11;98366.33;;;26.08;37.12
75549;BME280;64133;56.002;37.208;2023-07-31T11:51:17;98374.00;;;25.97;37.59
75549;BME280;64133;56.002;37.208;2023-07-31T11:56:22;98365.79;;;25.89;37.49
75549;BME280;64133;56.002;37.208;2023-07-31T12:01:27;98355.75;;;26.48;37.29
75549;BME280;64133;56.002;37.208;2023-07-31T12:06:35;98367.28;;;25.80;38.16
75549;BME280;64133;56.002;37.208;2023-07-31T12:11:44;98371.52;;;25.93;38.08
75549;BME280;64133;56.002;37.208;2023-07-31T12:16:49;98369.91;;;26.16;37.67
75549;BME280;64133;56.002;37.208;2023-07-31T12:21:54;98375.03;;;26.37;37.45
75549;BME280;64133;56.002;37.208;2023-07-31T12:26:58;98372.98;;;26.96;37.09
75549;BME280;64133;56.002;37.208;2023-07-31T12:32:03;98374.70;;;26.53;37.51
75549;BME280;64133;56.002;37.208;2023-07-31T12:42:22;98377.33;;;25.68;38.24
75549;BME280;64133;56.002;37.208;2023-07-31T12:47:27;98388.45;;;26.76;37.37
75549;BME280;64133;56.002;37.208;2023-07-31T12:52:31;98388.48;;;26.10;38.64
75549;BME280;64133;56.002;37.208;2023-07-31T12:57:36;98388.85;;;25.27;40.21
75549;BME280;64133;56.002;37.208;2023-07-31T13:02:41;98381.09;;;25.47;40.26
75549;BME280;64133;56.002;37.208;2023-07-31T13:07:45;98377.95;;;26.79;38.24
75549;BME280;64133;56.002;37.208;2023-07-31T13:12:50;98394.21;;;26.16;38.83
75549;BME280;64133;56.002;37.208;2023-07-31T13:17:54;98391.75;;;24.77;40.76
75549;BME280;64133;56.002;37.208;2023-07-31T13:22:59;98397.23;;;24.82;40.73
75549;BME280;64133;56.002;37.208;2023-07-31T13:28:04;98395.39;;;24.43;41.63
75549;BME280;64133;56.002;37.208;2023-07-31T13:33:09;98393.45;;;24.41;41.81
75549;BME280;64133;56.002;37.208;2023-07-31T13:38:13;98392.27;;;24.37;41.78
75549;BME280;64133;56.002;37.208;2023-07-31T13:43:18;98392.73;;;24.33;42.02
75549;BME280;64133;56.002;37.208;2023-07-31T13:48:23;98393.86;;;24.35;42.15
75549;BME280;64133;56.002;37.208;2023-07-31T13:53:28;98391.73;;;24.49;42.08
75549;BME280;64133;56.002;37.208;2023-07-31T13:58:33;98395.55;;;25.41;41.13
75549;BME280;64133;56.002;37.208;2023-07-31T14:03:38;98396.22;;;25.03;41.99
75549;BME280;64133;56.002;37.208;2023-07-31T14:08:42;98401.34;;;24.45;42.85
75549;BME280;64133;56.002;37.208;2023-07-31T14:13:47;98394.84;;;24.17;43.55
75549;BME280;64133;56.002;37.208;2023-07-31T14:18:52;98398.36;;;24.06;43.63
75549;BME280;64133;56.002;37.208;2023-07-31T14:23:56;98399.33;;;24.26;43.50
75549;BME280;64133;56.002;37.208;2023-07-31T14:29:01;98403.92;;;24.02;44.09
75549;BME280;64133;56.002;37.208;2023-07-31T14:34:06;98393.41;;;23.89;44.55
75549;BME280;64133;56.002;37.208;2023-07-31T14:39:11;98399.09;;;24.39;44.04
75549;BME280;64133;56.002;37.208;2023-07-31T14:44:16;98399.63;;;24.53;44.27
75549;BME280;64133;56.002;37.208;2023-07-31T14:49:21;98400.03;;;23.83;45.56
75549;BME280;64133;56.002;37.208;2023-07-31T14:54:25;98397.61;;;24.74;44.80
75549;BME280;64133;56.002;37.208;2023-07-31T14:59:30;98394.55;;;24.85;45.02
75549;BME280;64133;56.002;37.208;2023-07-31T15:04:35;98381.31;;;25.63;44.26
75549;BME280;64133;56.002;37.208;2023-07-31T15:09:40;98387.25;;;25.79;44.60
75549;BME280;64133;56.002;37.208;2023-07-31T15:14:45;98394.48;;;24.51;45.44
75549;BME280;64133;56.002;37.208;2023-07-31T15:19:49;98405.55;;;24.03;45.79
75549;BME280;64133;56.002;37.208;2023-07-31T15:24:54;98396.48;;;24.06;45.80
75549;BME280;64133;56.002;37.208;2023-07-31T15:29:59;98387.85;;;25.84;44.39
75549;BME280;64133;56.002;37.208;2023-07-31T15:35:04;98392.25;;;26.09;43.41
75549;BME280;64133;56.002;37.208;2023-07-31T15:40:10;98401.33;;;25.16;43.88
75549;BME280;64133;56.002;37.208;2023-07-31T15:45:15;98403.98;;;24.85;44.70
75549;BME280;64133;56.002;37.208;2023-07-31T15:50:20;98394.30;;;24.70;44.42
75549;BME280;64133;56.002;37.208;2023-07-31T15:55:25;98391.92;;;24.45;44.69
75549;BME280;64133;56.002;37.208;2023-07-31T16:00:32;98393.43;;;24.15;45.23
75549;BME280;64133;56.002;37.208;2023-07-31T16:05:36;98388.14;;;28.66;38.66
75549;BME280;64133;56.002;37.208;2023-07-31T16:10:41;98390.23;;;33.18;32.82
75549;BME280;64133;56.002;37.208;2023-07-31T16:15:46;98390.84;;;34.63;30.55
75549;BME280;64133;56.002;37.208;2023-07-31T16:20:51;98385.31;;;34.66;30.14
75549;BME280;64133;56.002;37.208;2023-07-31T16:25:57;98387.31;;;35.21;29.05
75549;BME280;64133;56.002;37.208;2023-07-31T16:31:02;98392.18;;;33.81;30.32
75549;BME280;64133;56.002;37.208;2023-07-31T16:36:08;98385.25;;;29.49;34.76
75549;BME280;64133;56.002;37.208;2023-07-31T16:41:13;98389.61;;;25.58;41.00
75549;BME280;64133;56.002;37.208;2023-07-31T16:46:18;98388.78;;;24.24;43.39
75549;BME280;64133;56.002;37.208;2023-07-31T16:51:23;98386.05;;;23.72;44.51
75549;BME280;64133;56.002;37.208;2023-07-31T16:56:28;98393.47;;;23.56;44.96
75549;BME280;64133;56.002;37.208;2023-07-31T17:01:33;98385.82;;;23.18;45.65
75549;BME280;64133;56.002;37.208;2023-07-31T17:06:37;98391.28;;;22.99;46.32
75549;BME280;64133;56.002;37.208;2023-07-31T17:11:42;98398.66;;;22.65;47.26
75549;BME280;64133;56.002;37.208;2023-07-31T17:16:47;98404.36;;;22.47;47.88
75549;BME280;64133;56.002;37.208;2023-07-31T17:21:51;98404.42;;;22.41;48.67
75549;BME280;64133;56.002;37.208;2023-07-31T17:26:57;98415.97;;;22.04;49.75
75549;BME280;64133;56.002;37.208;2023-07-31T17:32:09;98402.03;;;21.87;50.23
75549;BME280;64133;56.002;37.208;2023-07-31T17:37:14;98430.28;;;21.55;51.68
75549;BME280;64133;56.002;37.208;2023-07-31T17:42:19;98439.17;;;21.49;51.82
75549;BME280;64133;56.002;37.208;2023-07-31T17:47:25;98445.39;;;21.33;52.60
75549;BME280;64133;56.002;37.208;2023-07-31T17:52:29;98446.21;;;21.27;52.91
75549;BME280;64133;56.002;37.208;2023-07-31T17:57:34;98452.45;;;21.21;53.12
75549;BME280;64133;56.002;37.208;2023-07-31T18:02:39;98456.45;;;21.05;54.11
75549;BME280;64133;56.002;37.208;2023-07-31T18:07:44;98462.19;;;20.93;54.65
75549;BME280;64133;56.002;37.208;2023-07-31T18:12:50;98465.11;;;20.85;55.30
75549;BME280;64133;56.002;37.208;2023-07-31T18:17:55;98474.65;;;20.74;55.76
75549;BME280;64133;56.002;37.208;2023-07-31T18:23:00;98481.80;;;20.65;56.19
75549;BME280;64133;56.002;37.208;2023-07-31T18:28:05;98480.19;;;20.50;56.74
75549;BME280;64133;56.002;37.208;2023-07-31T18:33:10;98473.95;;;20.27;57.24
75549;BME280;64133;56.002;37.208;2023-07-31T18:38:15;98472.77;;;20.17;57.84
75549;BME280;64133;56.002;37.208;2023-07-31T18:43:19;98471.09;;;20.22;58.05
75549;BME280;64133;56.002;37.208;2023-07-31T18:48:24;98475.21;;;20.18;58.18
75549;BME280;64133;56.002;37.208;2023-07-31T18:53:32;98476.33;;;20.26;58.00
75549;BME280;64133;56.002;37.208;2023-07-31T18:58:42;98480.45;;;20.29;58.03
75549;BME280;64133;56.002;37.208;2023-07-31T19:03:49;98478.89;;;20.24;58.34
75549;BME280;64133;56.002;37.208;2023-07-31T19:08:54;98474.83;;;20.08;58.66
75549;BME280;64133;56.002;37.208;2023-07-31T19:14:00;98478.33;;;20.08;58.86
75549;BME280;64133;56.002;37.208;2023-07-31T19:19:16;98478.13;;;19.97;59.17
75549;BME280;64133;56.002;37.208;2023-07-31T19:24:24;98478.13;;;19.97;59.24
75549;BME280;64133;56.002;37.208;2023-07-31T19:29:32;98490.20;;;19.77;59.85
75549;BME280;64133;56.002;37.208;2023-07-31T19:34:37;98487.70;;;19.75;60.09
75549;BME280;64133;56.002;37.208;2023-07-31T19:39:45;98490.83;;;19.28;61.26
75549;BME280;64133;56.002;37.208;2023-07-31T19:44:52;98484.13;;;19.08;62.19
75549;BME280;64133;56.002;37.208;2023-07-31T19:49:59;98487.70;;;18.98;62.89
75549;BME280;64133;56.002;37.208;2023-07-31T19:55:06;98488.92;;;19.02;63.19
75549;BME280;64133;56.002;37.208;2023-07-31T20:00:13;98488.12;;;19.15;63.21
75549;BME280;64133;56.002;37.208;2023-07-31T20:05:20;98495.95;;;19.17;62.90
75549;BME280;64133;56.002;37.208;2023-07-31T20:10:29;98493.20;;;19.21;62.95
75549;BME280;64133;56.002;37.208;2023-07-31T20:15:35;98488.52;;;19.05;63.16
75549;BME280;64133;56.002;37.208;2023-07-31T20:20:41;98493.47;;;19.15;63.59
75549;BME280;64133;56.002;37.208;2023-07-31T20:25:47;98496.75;;;19.11;63.53
75549;BME280;64133;56.002;37.208;2023-07-31T20:30:52;98504.84;;;18.69;64.37
75549;BME280;64133;56.002;37.208;2023-07-31T20:35:57;98504.89;;;18.65;65.01
75549;BME280;64133;56.002;37.208;2023-07-31T20:41:01;98507.05;;;18.66;65.64
75549;BME280;64133;56.002;37.208;2023-07-31T20:46:06;98499.84;;;18.77;64.91
75549;BME280;64133;56.002;37.208;2023-07-31T20:51:11;98503.34;;;18.43;65.78
75549;BME280;64133;56.002;37.208;2023-07-31T20:56:15;98515.05;;;18.24;66.84
75549;BME280;64133;56.002;37.208;2023-07-31T21:01:20;98515.28;;;18.29;67.10
75549;BME280;64133;56.002;37.208;2023-07-31T21:06:25;98506.05;;;18.32;66.99
75549;BME280;64133;56.002;37.208;2023-07-31T21:11:30;98500.20;;;18.15;67.28
75549;BME280;64133;56.002;37.208;2023-07-31T21:16:35;98498.30;;;18.02;67.81
75549;BME280;64133;56.002;37.208;2023-07-31T21:21:39;98504.18;;;17.98;68.00
75549;BME280;64133;56.002;37.208;2023-07-31T21:26:44;98505.99;;;17.91;68.67
75549;BME280;64133;56.002;37.208;2023-07-31T21:31:49;98495.41;;;17.87;68.78
75549;BME280;64133;56.002;37.208;2023-07-31T21:36:53;98503.23;;;17.77;69.52
75549;BME280;64133;56.002;37.208;2023-07-31T21:41:58;98503.98;;;17.82;69.33
75549;BME280;64133;56.002;37.208;2023-07-31T21:47:03;98497.83;;;17.81;69.35
75549;BME280;64133;56.002;37.208;2023-07-31T21:52:08;98497.31;;;17.82;69.68
75549;BME280;64133;56.002;37.208;2023-07-31T21:57:13;98495.23;;;17.77;69.76
75549;BME280;64133;56.002;37.208;2023-07-31T22:02:17;98497.70;;;18.07;69.21
75549;BME280;64133;56.002;37.208;2023-07-31T22:07:22;98495.58;;;18.13;69.16
75549;BME280;64133;56.002;37.208;2023-07-31T22:12:27;98495.81;;;18.18;69.06
75549;BME280;64133;56.002;37.208;2023-07-31T22:17:32;98497.15;;;18.18;68.91
75549;BME280;64133;56.002;37.208;2023-07-31T22:22:36;98491.28;;;18.12;68.82
75549;BME280;64133;56.002;37.208;2023-07-31T22:27:41;98492.73;;;17.87;69.85
75549;BME280;64133;56.002;37.208;2023-07-31T22:32:46;98489.26;;;17.75;70.40
75549;BME280;64133;56.002;37.208;2023-07-31T22:37:51;98490.28;;;17.74;70.68
75549;BME280;64133;56.002;37.208;2023-07-31T22:42:55;98486.80;;;17.74;70.64
75549;BME280;64133;56.002;37.208;2023-07-31T22:48:00;98492.74;;;17.76;70.71
75549;BME280;64133;56.002;37.208;2023-07-31T22:53:05;98494.45;;;17.73;70.74
75549;BME280;64133;56.002;37.208;2023-07-31T22:58:09;98488.98;;;17.70;70.71
75549;BME280;64133;56.002;37.208;2023-07-31T23:03:14;98495.92;;;17.75;70.81
75549;BME280;64133;56.002;37.208;2023-07-31T23:08:19;98492.47;;;17.71;70.90
75549;BME280;64133;56.002;37.208;2023-07-31T23:13:23;98490.02;;;17.69;71.12
75549;BME280;64133;56.002;37.208;2023-07-31T23:18:28;98492.98;;;17.70;70.79
75549;BME280;64133;56.002;37.208;2023-07-31T23:23:33;98488.61;;;17.63;71.29
75549;BME280;64133;56.002;37.208;2023-07-31T23:28:38;98507.08;;;17.53;70.97
75549;BME280;64133;56.002;37.208;2023-07-31T23:33:42;98504.25;;;17.33;72.23
75549;BME280;64133;56.002;37.208;2023-07-31T23:38:47;98510.56;;;17.32;72.42
75549;BME280;64133;56.002;37.208;2023-07-31T23:43:52;98505.95;;;17.20;72.45
75549;BME280;64133;56.002;37.208;2023-07-31T23:48:56;98503.49;;;16.93;73.24
75549;BME280;64133;56.002;37.208;2023-07-31T23:54:01;98504.20;;;16.91;73.64
75549;BME280;64133;56.002;37.208;2023-07-31T23:59:06;98510.95;;;17.08;73.33
